Airfield :
LOGIN :

Register | Disclaimer

   EN    FR    IT 

 










Legend :    VFR   Marginal VFR   IFR   Intensive IFR   Very Intensive IFR
Visi :
Ceiling :
>= 8 km
>= 3000ft
5 to 8 km
1000 to 3000 ft
1500m to 5 km
500 to 1000 ft
800 to 1500m
200 to 500 ft
< 800m
< 200 ft
Symbols :   Thunderstorms  Fog  Heavy snow  Heavy precipitations  Wind > 20 kt
SIGMETs :     Misc.  Thunderstorms  Icing  Turbulence  Mountain Waves  Volcanic Ashes






- Airport Elevation : 681 ft
- IATA code : OSL


ENGM - Oslo Gardermoen

CURRENT METAR :
  • 250550Z 04005KT 9999 SCT041 SCT067 17/14 Q1021 NOSIG

EXPIRED METARs :
  • 250520Z 03003KT 350V090 9999 SCT041 SCT067 16/13 Q1021 NOSIG
  • 250450Z 05004KT 020V080 9999 BKN042 15/13 Q1021 NOSIG
  • 250420Z 06002KT 9999 FEW043 SCT050 14/12 Q1022 NOSIG
  • 250350Z 01003KT 340V040 CAVOK 14/12 Q1021 NOSIG
  • 250320Z VRB02KT 9999 SCT049 14/12 Q1021
  • 250250Z VRB02KT CAVOK 14/12 Q1021
  • 250220Z 00000KT CAVOK 13/12 Q1021
  • 250150Z 35003KT CAVOK 13/12 Q1021
  • 250120Z 36001KT CAVOK 14/12 Q1021

TAF TAF ENGM
Valid from the 25 at 06:00 until the 26 at 06:00 UTC


250500Z 2506/2606 02005KT 9999 FEW030 BKN040
TEMPO 2506/2516 SCT030TCU
BECMG 2509/2511 14010KT



MET'MAP, your aeronautical weather chart ! - Copyright ORBIFLY December 2007 - Disclaimer

ORBIFLY MET'MAP TEAM :

Programming & Development : Alexandra Zaïnal
Original concept : Baudouin d'Aumeries
Technical & hardware support : Manuel Goepfert
Assistance : Marc-Olivier Méhu




SOURCES & CREDITS :

   NOAA